Time;durP1;ratioP1;P1;durP2;ratioP2;P2;SDS_P1;SDS_P2;PMS_P1;PMS_P2;Temp;Humidity;BMP_temperature;BMP_pressure;BME280_temperature;BME280_humidity;BME280_pressure;Samples;Min_cycle;Max_cycle;Signal;HPM_P1;HPM_P2
2021/06/03 00:00:01;;;;;;;6.28;5.20;;;21.80;99.90;;;;;;4980537;28;20495;-76
2021/06/03 00:02:27;;;;;;;6.97;4.93;;;21.80;99.90;;;;;;4974552;28;20059;-78
2021/06/03 00:04:54;;;;;;;6.93;5.60;;;21.80;99.90;;;;;;4973187;28;20097;-78
2021/06/03 00:07:22;;;;;;;7.65;5.15;;;21.80;99.90;;;;;;4973256;28;20086;-77
2021/06/03 00:09:48;;;;;;;6.30;5.57;;;21.70;99.90;;;;;;4973126;28;20046;-76
2021/06/03 00:12:14;;;;;;;8.07;5.72;;;21.70;99.90;;;;;;4972937;28;20093;-77
2021/06/03 00:14:41;;;;;;;6.38;5.55;;;21.70;99.90;;;;;;4972820;28;20153;-77
2021/06/03 00:17:08;;;;;;;7.03;5.40;;;21.60;99.90;;;;;;4973596;28;20082;-77
2021/06/03 00:19:34;;;;;;;6.57;5.50;;;21.60;99.90;;;;;;4973414;28;20427;-77
2021/06/03 00:22:00;;;;;;;7.22;5.45;;;21.60;99.90;;;;;;4972427;28;20051;-77
2021/06/03 00:24:28;;;;;;;7.07;5.32;;;21.50;99.90;;;;;;4973052;28;20125;-77
2021/06/03 00:26:55;;;;;;;6.05;5.35;;;21.50;99.90;;;;;;4973202;28;20504;-77
2021/06/03 00:29:21;;;;;;;9.20;5.68;;;21.50;99.90;;;;;;4973734;28;20047;-77
2021/06/03 00:31:47;;;;;;;8.43;5.22;;;21.50;99.90;;;;;;4973410;28;20138;-77
2021/06/03 00:34:14;;;;;;;5.82;5.22;;;21.50;99.90;;;;;;4973088;28;20142;-77
2021/06/03 00:36:40;;;;;;;5.63;5.00;;;21.40;99.90;;;;;;4973536;28;20189;-78
2021/06/03 00:39:07;;;;;;;7.97;5.40;;;21.30;99.90;;;;;;4973518;28;20053;-77
2021/06/03 00:41:35;;;;;;;6.70;5.35;;;21.30;99.90;;;;;;4972664;28;20577;-77
2021/06/03 00:44:02;;;;;;;6.68;5.53;;;21.20;99.90;;;;;;4972552;28;20051;-76
2021/06/03 00:46:29;;;;;;;7.20;5.90;;;21.20;99.90;;;;;;4973430;28;20105;-77
2021/06/03 00:48:55;;;;;;;9.52;5.53;;;21.20;99.90;;;;;;4973283;28;20086;-77
2021/06/03 00:51:24;;;;;;;7.88;5.88;;;21.20;99.90;;;;;;4972716;28;20087;-77
2021/06/03 00:53:50;;;;;;;7.88;5.68;;;21.20;99.90;;;;;;4973130;28;20118;-77
2021/06/03 00:56:17;;;;;;;6.30;5.10;;;21.20;99.90;;;;;;4973159;28;20054;-76
2021/06/03 00:58:45;;;;;;;5.95;5.35;;;21.20;99.90;;;;;;4973660;28;20086;-76
2021/06/03 01:01:12;;;;;;;9.63;6.20;;;21.20;99.90;;;;;;4973280;28;20405;-76
2021/06/03 01:03:38;;;;;;;6.85;5.40;;;21.20;99.90;;;;;;4972580;28;20082;-76
2021/06/03 01:06:07;;;;;;;7.55;5.47;;;21.10;99.90;;;;;;4973076;28;20051;-77
2021/06/03 01:08:36;;;;;;;6.57;5.22;;;21.10;99.90;;;;;;4973144;28;20518;-77
2021/06/03 01:11:07;;;;;;;6.55;5.45;;;21.00;99.90;;;;;;4972928;28;20130;-77
2021/06/03 01:13:41;;;;;;;7.53;5.75;;;21.00;99.90;;;;;;4972637;28;20129;-77
2021/06/03 01:16:11;;;;;;;7.03;5.68;;;21.00;99.90;;;;;;4972164;28;20512;-77
2021/06/03 01:18:39;;;;;;;9.25;5.45;;;21.00;99.90;;;;;;4972211;28;20085;-77
2021/06/03 01:21:08;;;;;;;6.45;5.53;;;21.00;99.90;;;;;;4972159;28;20464;-77
2021/06/03 01:23:39;;;;;;;8.43;5.90;;;21.10;99.90;;;;;;4971946;28;20050;-77
2021/06/03 01:26:07;;;;;;;6.50;5.80;;;21.10;99.90;;;;;;4972158;28;20081;-78
2021/06/03 01:28:35;;;;;;;8.23;5.78;;;21.10;99.90;;;;;;4972362;28;20063;-79
2021/06/03 01:31:04;;;;;;;8.25;5.90;;;21.10;99.90;;;;;;4972162;28;20482;-78
2021/06/03 01:33:33;;;;;;;7.25;5.85;;;21.00;99.90;;;;;;4973722;28;20476;-78
2021/06/03 01:36:06;;;;;;;7.10;5.80;;;20.90;99.90;;;;;;4977193;28;20058;-78
2021/06/03 01:38:35;;;;;;;;;;;20.80;99.90;;;;;;4981094;28;20061;-77
2021/06/03 01:41:04;;;;;;;6.90;5.82;;;20.70;99.90;;;;;;4987248;28;19922;-75
2021/06/03 01:43:34;;;;;;;9.60;5.82;;;20.70;99.90;;;;;;4977573;28;20065;-76
2021/06/03 01:46:01;;;;;;;8.52;5.80;;;20.60;99.90;;;;;;4976548;28;20133;-77
2021/06/03 01:48:28;;;;;;;9.05;6.25;;;20.60;99.90;;;;;;4975941;28;20055;-79
2021/06/03 01:50:57;;;;;;;8.82;6.28;;;20.50;99.90;;;;;;4976484;28;20161;-78
2021/06/03 01:53:25;;;;;;;10.10;6.40;;;20.50;99.90;;;;;;4975553;28;20053;-78
2021/06/03 01:55:59;;;;;;;7.88;5.82;;;20.40;99.90;;;;;;4975522;28;20043;-77
2021/06/03 01:58:26;;;;;;;8.80;6.05;;;20.30;99.90;;;;;;4976054;28;20452;-78
2021/06/03 02:00:54;;;;;;;7.97;6.20;;;20.30;99.90;;;;;;4975373;28;20051;-79
2021/06/03 02:03:22;;;;;;;7.28;5.93;;;20.20;99.90;;;;;;4975505;28;20448;-77
2021/06/03 02:05:48;;;;;;;10.20;5.80;;;20.20;99.90;;;;;;4975018;28;20129;-78
2021/06/03 02:08:15;;;;;;;7.32;6.18;;;20.10;99.90;;;;;;4969089;28;20548;-79
2021/06/03 02:10:42;;;;;;;8.07;5.70;;;20.10;99.90;;;;;;4956289;29;20592;-78
2021/06/03 02:13:14;;;;;;;10.07;6.72;;;20.10;99.90;;;;;;4955019;29;20101;-78
2021/06/03 02:15:47;;;;;;;7.97;6.30;;;20.10;99.90;;;;;;4956280;29;20113;-78
2021/06/03 02:18:16;;;;;;;7.53;6.13;;;20.10;99.90;;;;;;4956092;29;20051;-78
2021/06/03 02:20:47;;;;;;;7.90;6.20;;;20.00;99.90;;;;;;4955812;29;20066;-78
2021/06/03 02:23:16;;;;;;;7.03;5.90;;;20.00;99.90;;;;;;4955696;29;20148;-77
2021/06/03 02:25:42;;;;;;;9.38;6.53;;;19.90;99.90;;;;;;4955811;29;20193;-78
2021/06/03 02:28:10;;;;;;;7.22;6.32;;;19.90;99.90;;;;;;4955963;29;20388;-78
2021/06/03 02:30:36;;;;;;;8.60;6.28;;;19.80;99.90;;;;;;4956343;29;20130;-77
2021/06/03 02:33:04;;;;;;;8.20;5.78;;;19.80;99.90;;;;;;4955780;29;20057;-77
2021/06/03 02:35:32;;;;;;;6.35;5.65;;;19.80;99.90;;;;;;4955443;29;20480;-77
2021/06/03 02:37:59;;;;;;;7.60;6.05;;;19.70;99.90;;;;;;4955492;29;20090;-79
2021/06/03 02:40:28;;;;;;;8.02;6.10;;;19.70;99.90;;;;;;4956097;29;20078;-78
2021/06/03 02:42:55;;;;;;;6.43;5.78;;;19.70;99.90;;;;;;4958443;29;20155;-80
2021/06/03 02:45:25;;;;;;;8.50;6.38;;;19.50;99.90;;;;;;4956472;28;20551;-78
2021/06/03 02:47:51;;;;;;;7.03;6.32;;;19.50;99.90;;;;;;4955538;29;20086;-78
2021/06/03 02:50:20;;;;;;;8.07;5.97;;;19.50;99.90;;;;;;4955342;29;20127;-77
2021/06/03 02:52:48;;;;;;;8.30;5.80;;;19.50;99.90;;;;;;4955423;29;20054;-78
2021/06/03 02:55:17;;;;;;;8.10;6.40;;;19.50;99.90;;;;;;4955353;29;20503;-78
2021/06/03 02:57:46;;;;;;;6.50;5.50;;;19.50;99.90;;;;;;4955653;29;20062;-78
2021/06/03 03:00:16;;;;;;;7.28;6.00;;;19.40;99.90;;;;;;4955356;29;20516;-79
2021/06/03 03:02:42;;;;;;;9.00;6.10;;;19.40;99.90;;;;;;4955200;29;20113;-77
2021/06/03 03:05:09;;;;;;;8.77;6.30;;;19.40;99.90;;;;;;4955037;29;20090;-79
2021/06/03 03:07:36;;;;;;;8.18;6.20;;;19.40;99.90;;;;;;4955029;29;20205;-78
2021/06/03 03:10:06;;;;;;;7.53;6.18;;;19.30;99.90;;;;;;4955281;29;20047;-78
2021/06/03 03:12:33;;;;;;;7.75;5.97;;;19.20;99.90;;;;;;4955487;29;20143;-73
2021/06/03 03:14:59;;;;;;;8.27;6.32;;;19.20;99.90;;;;;;4955147;29;20051;-77
2021/06/03 03:17:26;;;;;;;8.75;6.20;;;19.20;99.90;;;;;;4955055;29;20173;-79
2021/06/03 03:19:52;;;;;;;6.63;5.70;;;19.10;99.90;;;;;;4955278;29;20423;-78
2021/06/03 03:22:18;;;;;;;8.35;6.13;;;19.10;99.90;;;;;;4954999;29;20431;-78
2021/06/03 03:24:45;;;;;;;6.88;6.18;;;19.10;99.90;;;;;;4954987;29;20574;-78
2021/06/03 03:27:12;;;;;;;8.07;6.13;;;19.10;99.90;;;;;;4954488;29;20263;-78
2021/06/03 03:29:39;;;;;;;6.90;5.78;;;19.10;99.90;;;;;;4954716;29;20094;-79
2021/06/03 03:32:07;;;;;;;6.82;5.57;;;19.10;99.90;;;;;;4954574;29;20062;-78
2021/06/03 03:34:33;;;;;;;6.30;5.57;;;19.10;99.90;;;;;;4954618;29;20051;-79
2021/06/03 03:36:59;;;;;;;7.25;5.70;;;19.10;99.90;;;;;;4954514;29;20078;-77
2021/06/03 03:39:26;;;;;;;6.70;5.53;;;19.10;99.90;;;;;;4953809;29;20058;-78
2021/06/03 03:41:54;;;;;;;8.02;6.28;;;19.10;99.90;;;;;;4954267;29;20143;-76
2021/06/03 03:44:22;;;;;;;7.32;5.47;;;19.10;99.90;;;;;;4954209;29;20183;-77
2021/06/03 03:46:48;;;;;;;7.13;5.70;;;19.10;99.90;;;;;;4954219;29;20548;-77
2021/06/03 03:49:15;;;;;;;7.20;6.00;;;19.10;99.90;;;;;;4953977;29;20082;-77
2021/06/03 03:51:41;;;;;;;8.52;6.00;;;19.20;99.90;;;;;;4953876;29;20418;-78
2021/06/03 03:54:08;;;;;;;7.00;5.43;;;19.10;99.90;;;;;;4954028;29;20494;-76
2021/06/03 03:56:34;;;;;;;9.35;6.07;;;19.20;99.90;;;;;;4953432;28;20485;-77
2021/06/03 03:59:00;;;;;;;7.80;6.15;;;19.20;99.90;;;;;;4953712;29;20547;-77
2021/06/03 04:01:29;;;;;;;7.05;5.97;;;19.20;99.90;;;;;;4954262;29;20055;-76
2021/06/03 04:03:56;;;;;;;7.88;5.60;;;19.30;99.90;;;;;;4953767;29;20047;-78
2021/06/03 04:06:22;;;;;;;6.72;5.57;;;19.40;99.90;;;;;;4954034;29;20047;-79
2021/06/03 04:08:49;;;;;;;6.53;5.82;;;19.60;99.90;;;;;;4953983;29;20138;-78
2021/06/03 04:11:16;;;;;;;8.30;6.22;;;19.70;99.90;;;;;;4953750;29;20137;-77
2021/06/03 04:13:42;;;;;;;7.90;6.10;;;19.70;99.90;;;;;;4953639;29;20133;-78
2021/06/03 04:16:08;;;;;;;7.50;5.55;;;19.70;99.90;;;;;;4953706;29;20124;-78
2021/06/03 04:18:36;;;;;;;7.85;5.93;;;19.80;99.90;;;;;;4953896;29;20447;-79
2021/06/03 04:21:03;;;;;;;8.65;6.13;;;19.70;99.90;;;;;;4953282;29;20130;-76
2021/06/03 04:23:30;;;;;;;9.07;5.95;;;19.70;99.90;;;;;;4953758;29;20047;-77
2021/06/03 04:25:56;;;;;;;6.65;5.80;;;19.70;99.90;;;;;;4953886;29;20058;-77
2021/06/03 04:28:23;;;;;;;7.13;5.68;;;19.70;99.90;;;;;;4953351;29;20082;-78
2021/06/03 04:30:49;;;;;;;6.97;6.00;;;19.80;99.90;;;;;;4953480;29;20448;-78
2021/06/03 04:33:20;;;;;;;8.80;6.00;;;20.00;99.90;;;;;;4953341;29;20102;-78
2021/06/03 04:35:48;;;;;;;6.60;5.30;;;20.20;99.90;;;;;;4953346;29;20066;-78
2021/06/03 04:38:15;;;;;;;6.75;5.25;;;20.40;99.90;;;;;;4953545;29;20057;-77
2021/06/03 04:43:09;;;;;;;8.38;6.05;;;20.20;99.90;;;;;;4973429;28;20078;-78
2021/06/03 04:45:36;;;;;;;8.80;5.95;;;20.00;99.90;;;;;;4981983;28;20082;-79
2021/06/03 04:48:04;;;;;;;7.15;5.70;;;19.80;99.90;;;;;;4985840;28;20119;-78
2021/06/03 04:50:31;;;;;;;8.27;6.10;;;19.80;99.90;;;;;;4981413;28;20130;-77
2021/06/03 04:52:59;;;;;;;8.57;5.30;;;19.90;99.90;;;;;;4978060;28;20129;-77
2021/06/03 04:55:26;;;;;;;8.65;5.95;;;19.90;99.90;;;;;;4980892;28;20101;-78
2021/06/03 04:57:54;;;;;;;6.63;5.75;;;20.00;99.90;;;;;;4978942;28;20082;-78
2021/06/03 05:00:24;;;;;;;10.10;5.82;;;20.10;99.90;;;;;;4983600;28;20089;-80
2021/06/03 05:02:50;;;;;;;9.88;5.75;;;20.30;99.90;;;;;;4985652;28;20570;-80
2021/06/03 05:05:17;;;;;;;8.82;5.40;;;20.60;99.90;;;;;;4986864;28;20054;-80
2021/06/03 05:07:46;;;;;;;6.93;5.93;;;21.00;99.90;;;;;;4986982;28;20086;-79
2021/06/03 05:10:16;;;;;;;10.10;5.85;;;21.10;99.90;;;;;;4986905;28;20093;-81
2021/06/03 05:12:43;;;;;;;8.30;6.05;;;21.10;99.90;;;;;;4987035;28;20122;-80
2021/06/03 05:15:10;;;;;;;7.15;5.93;;;21.20;99.90;;;;;;4988408;28;20081;-80
2021/06/03 05:17:38;;;;;;;8.23;5.93;;;21.30;99.90;;;;;;4987257;28;20085;-82
2021/06/03 05:20:06;;;;;;;9.40;6.32;;;21.50;99.90;;;;;;4969465;28;20070;-80
2021/06/03 05:22:33;;;;;;;7.82;5.90;;;21.70;99.90;;;;;;4985583;28;20078;-79
2021/06/03 05:24:59;;;;;;;7.60;6.10;;;21.80;99.90;;;;;;4983567;28;20098;-81
2021/06/03 05:27:27;;;;;;;7.20;5.68;;;21.90;99.90;;;;;;4985701;28;20404;-79
2021/06/03 05:29:53;;;;;;;8.05;6.07;;;22.20;99.90;;;;;;4986085;28;20051;-78
2021/06/03 05:32:20;;;;;;;9.18;6.28;;;22.90;99.90;;;;;;4986490;28;20054;-81
2021/06/03 05:34:46;;;;;;;7.80;5.97;;;23.30;99.90;;;;;;4987324;28;20051;-80
2021/06/03 05:37:13;;;;;;;10.45;6.10;;;23.40;99.90;;;;;;4988576;28;20090;-81
2021/06/03 05:39:39;;;;;;;7.40;6.20;;;23.30;99.90;;;;;;4987224;28;20074;-82
2021/06/03 05:42:06;;;;;;;7.97;6.30;;;23.20;99.90;;;;;;4986570;28;20055;-79
2021/06/03 05:44:34;;;;;;;8.02;6.22;;;23.00;99.90;;;;;;4987250;28;20055;-81
2021/06/03 05:47:01;;;;;;;7.55;6.38;;;22.50;99.90;;;;;;4987538;28;20054;-80
2021/06/03 05:49:28;;;;;;;11.95;6.60;;;22.30;99.90;;;;;;4987523;28;20057;-80
2021/06/03 05:51:55;;;;;;;8.10;6.57;;;22.10;99.90;;;;;;4987280;28;20051;-79
2021/06/03 05:54:22;;;;;;;9.23;6.53;;;22.00;99.90;;;;;;4986763;28;20109;-80
2021/06/03 05:56:48;;;;;;;8.95;6.32;;;22.10;99.90;;;;;;4981332;28;20082;-80
2021/06/03 05:59:14;;;;;;;8.52;6.10;;;22.20;99.90;;;;;;4985821;28;20055;-80
2021/06/03 06:01:42;;;;;;;6.18;5.50;;;22.40;99.90;;;;;;4985574;28;20046;-80
2021/06/03 06:05:55;;;;;;;7.47;5.90;;;23.00;99.90;;;;;;4984821;28;20139;-80
2021/06/03 06:07:01;;;;;;;7.82;5.80;;;23.90;99.90;;;;;;4984668;28;20050;-81
2021/06/03 06:09:27;;;;;;;7.70;5.88;;;24.50;99.90;;;;;;4986242;28;20128;-81
2021/06/03 06:11:53;;;;;;;8.05;6.00;;;24.30;99.90;;;;;;4984453;28;20113;-79
2021/06/03 06:14:20;;;;;;;10.70;6.70;;;24.00;99.90;;;;;;4982946;28;20074;-79
2021/06/03 06:16:48;;;;;;;8.73;5.95;;;23.70;99.90;;;;;;4985698;28;20078;-81
2021/06/03 06:19:14;;;;;;;10.85;6.57;;;23.30;99.90;;;;;;4984211;28;20062;-80
2021/06/03 06:21:40;;;;;;;8.07;5.60;;;23.10;99.90;;;;;;4987690;28;20081;-80
2021/06/03 06:24:08;;;;;;;9.13;6.38;;;23.00;99.90;;;;;;4988849;28;20141;-81
2021/06/03 06:26:35;;;;;;;7.85;5.95;;;22.90;99.90;;;;;;4989398;28;20129;-81
2021/06/03 06:29:02;;;;;;;7.80;6.63;;;22.80;99.90;;;;;;4989451;28;20046;-79
2021/06/03 06:31:28;;;;;;;11.07;6.80;;;22.70;99.90;;;;;;4985903;28;20082;-80
2021/06/03 06:33:56;;;;;;;8.30;6.10;;;22.60;99.90;;;;;;4984442;28;20082;-79
2021/06/03 06:36:24;;;;;;;10.75;6.57;;;22.40;99.90;;;;;;4986469;28;20575;-79
2021/06/03 06:38:50;;;;;;;8.98;6.60;;;22.10;99.90;;;;;;4986394;28;20066;-80
2021/06/03 06:41:17;;;;;;;8.10;6.80;;;22.00;99.90;;;;;;4987065;28;20089;-80
2021/06/03 06:43:43;;;;;;;10.00;6.68;;;21.90;99.90;;;;;;4987769;28;20087;-80
2021/06/03 06:46:09;;;;;;;7.75;6.65;;;21.90;99.90;;;;;;4988495;28;20082;-81
2021/06/03 06:48:36;;;;;;;12.15;7.63;;;21.80;99.90;;;;;;4990527;28;20062;-80
2021/06/03 06:51:05;;;;;;;19.25;9.55;;;21.70;99.90;;;;;;4989249;28;20121;-81
2021/06/03 06:53:32;;;;;;;16.25;9.30;;;21.50;99.90;;;;;;4989422;28;20074;-80
2021/06/03 06:55:58;;;;;;;15.38;8.93;;;21.20;99.90;;;;;;4989320;28;20353;-80
2021/06/03 06:58:25;;;;;;;15.80;10.40;;;20.80;99.90;;;;;;4984033;28;20399;-80
2021/06/03 07:00:51;;;;;;;13.25;9.73;;;20.60;99.90;;;;;;4986384;28;20527;-79
2021/06/03 07:03:18;;;;;;;14.68;10.10;;;20.20;99.90;;;;;;4987472;28;20062;-81
2021/06/03 07:05:46;;;;;;;18.27;10.90;;;20.20;99.90;;;;;;4988334;28;20110;-80
2021/06/03 07:08:14;;;;;;;12.60;9.60;;;20.20;99.90;;;;;;4982828;28;20078;-80
2021/06/03 07:10:41;;;;;;;15.85;9.77;;;20.20;99.90;;;;;;4984308;28;20090;-80
2021/06/03 07:13:07;;;;;;;12.23;8.88;;;20.10;99.90;;;;;;4988384;28;20500;-80
2021/06/03 07:15:34;;;;;;;12.60;9.23;;;20.10;99.90;;;;;;4988654;28;20111;-81
2021/06/03 07:18:00;;;;;;;11.98;9.05;;;20.00;99.90;;;;;;4985823;28;20058;-80
2021/06/03 07:20:27;;;;;;;13.93;9.57;;;20.00;99.90;;;;;;4988338;28;20081;-81
2021/06/03 07:23:00;;;;;;;11.07;9.07;;;20.00;99.90;;;;;;4987682;28;20051;-80
2021/06/03 07:25:28;;;;;;;13.02;9.60;;;20.10;99.90;;;;;;4988199;28;20061;-80
2021/06/03 07:27:54;;;;;;;10.90;8.65;;;20.30;99.90;;;;;;4988215;28;20110;-82
2021/06/03 07:30:24;;;;;;;11.90;8.70;;;20.50;99.90;;;;;;4987403;28;20046;-80
2021/06/03 07:32:51;;;;;;;12.48;9.00;;;20.60;99.90;;;;;;4987898;28;20057;-80
2021/06/03 07:35:19;;;;;;;15.30;9.38;;;20.80;99.90;;;;;;4987178;28;20074;-80
2021/06/03 07:37:47;;;;;;;10.00;8.77;;;21.30;99.90;;;;;;4985726;28;20058;-82
2021/06/03 07:40:16;;;;;;;10.13;9.13;;;21.70;99.90;;;;;;4986512;28;20147;-80
2021/06/03 07:42:44;;;;;;;11.63;8.80;;;22.00;99.90;;;;;;4986264;28;20075;-81
2021/06/03 07:45:12;;;;;;;11.15;9.30;;;22.50;99.90;;;;;;4984590;28;20046;-82
2021/06/03 07:47:41;;;;;;;9.63;8.20;;;23.30;99.90;;;;;;4985352;28;20078;-81
2021/06/03 07:50:09;;;;;;;12.20;8.98;;;23.80;99.90;;;;;;4986057;28;20081;-82
2021/06/03 07:52:36;;;;;;;9.00;8.10;;;24.30;99.90;;;;;;4986068;28;20070;-81
2021/06/03 07:55:05;;;;;;;9.40;8.48;;;24.50;99.90;;;;;;4983130;28;20399;-80
2021/06/03 07:57:32;;;;;;;11.05;8.35;;;24.50;99.90;;;;;;4983499;28;20480;-79
2021/06/03 08:00:00;;;;;;;10.18;9.15;;;24.30;99.90;;;;;;4984189;28;20043;-82
2021/06/03 08:02:26;;;;;;;9.70;7.78;;;24.00;99.90;;;;;;4983259;28;20105;-81
2021/06/03 08:04:52;;;;;;;10.57;8.77;;;23.70;99.90;;;;;;4982366;28;20082;-81
2021/06/03 08:07:19;;;;;;;9.45;8.40;;;23.50;99.90;;;;;;4982342;28;20122;-80
2021/06/03 08:09:45;;;;;;;9.85;8.07;;;23.20;99.90;;;;;;4971644;28;20074;-82
2021/06/03 08:12:13;;;;;;;10.43;9.15;;;23.10;99.90;;;;;;4972988;28;20058;-82
2021/06/03 08:14:39;;;;;;;10.23;9.00;;;23.00;99.90;;;;;;4974256;28;20567;-78
2021/06/03 08:17:07;;;;;;;12.23;9.32;;;22.80;99.90;;;;;;4972720;28;20086;-81
2021/06/03 08:19:34;;;;;;;10.27;8.55;;;22.90;99.90;;;;;;4973452;28;20090;-82
2021/06/03 08:22:01;;;;;;;10.10;9.00;;;22.90;99.90;;;;;;4973070;28;20460;-82
2021/06/03 08:24:27;;;;;;;10.27;8.13;;;23.00;99.90;;;;;;4969742;28;20042;-80
2021/06/03 08:26:54;;;;;;;10.32;8.57;;;23.10;99.90;;;;;;4971394;28;20114;-79
2021/06/03 08:29:21;;;;;;;10.52;8.48;;;23.20;99.90;;;;;;4975424;28;20094;-78
2021/06/03 08:31:49;;;;;;;13.10;9.27;;;23.20;99.90;;;;;;4961780;28;20047;-81
2021/06/03 08:34:18;;;;;;;12.70;8.90;;;23.20;99.90;;;;;;4966121;28;20488;-81
2021/06/03 08:36:45;;;;;;;11.57;9.30;;;23.20;99.90;;;;;;4973091;28;20114;-79
2021/06/03 08:39:11;;;;;;;10.73;9.07;;;23.20;99.90;;;;;;4974698;28;20085;-81
2021/06/03 08:41:39;;;;;;;10.82;8.63;;;23.10;99.90;;;;;;4979459;28;20114;-81
2021/06/03 08:44:07;;;;;;;10.43;9.10;;;23.10;99.90;;;;;;4978745;28;20531;-81
2021/06/03 08:46:34;;;;;;;12.70;10.43;;;23.10;99.90;;;;;;4977250;28;20466;-83
2021/06/03 08:49:02;;;;;;;12.85;10.70;;;23.00;99.90;;;;;;4979890;28;20057;-81
2021/06/03 08:51:30;;;;;;;11.00;9.65;;;22.90;99.90;;;;;;4981418;28;20047;-80
2021/06/03 08:53:57;;;;;;;15.20;10.82;;;22.70;99.90;;;;;;4974920;28;20566;-81
2021/06/03 08:56:24;;;;;;;13.52;10.57;;;22.70;99.90;;;;;;4974438;28;20058;-80
2021/06/03 08:58:52;;;;;;;25.10;11.00;;;22.60;99.90;;;;;;4977493;28;20121;-81
2021/06/03 09:01:20;;;;;;;12.55;10.48;;;22.50;99.90;;;;;;4983715;28;20054;-80
2021/06/03 09:03:47;;;;;;;14.07;11.07;;;22.40;99.90;;;;;;4987338;28;20093;-81
2021/06/03 09:06:16;;;;;;;12.30;10.73;;;22.40;99.90;;;;;;4989123;28;20062;-80
2021/06/03 09:08:48;;;;;;;16.25;9.98;;;22.30;99.90;;;;;;4986435;28;20519;-79
2021/06/03 09:11:17;;;;;;;14.85;10.02;;;22.20;99.90;;;;;;4979079;28;20050;-81
2021/06/03 09:13:47;;;;;;;15.30;11.07;;;22.20;99.90;;;;;;4981252;28;20050;-79
2021/06/03 09:16:17;;;;;;;13.48;10.55;;;22.20;99.90;;;;;;4983764;28;20062;-80
2021/06/03 09:18:45;;;;;;;12.38;10.13;;;22.20;99.90;;;;;;4980660;28;20074;-80
2021/06/03 09:21:14;;;;;;;11.73;10.52;;;22.10;99.90;;;;;;4979337;28;20122;-80
2021/06/03 09:23:42;;;;;;;12.20;10.90;;;22.10;99.90;;;;;;4979468;28;20058;-81
2021/06/03 09:26:11;;;;;;;14.15;11.15;;;22.10;99.90;;;;;;4972806;28;20134;-81
2021/06/03 09:28:39;;;;;;;16.88;10.50;;;22.00;99.90;;;;;;4970972;28;20137;-81
2021/06/03 09:31:12;;;;;;;12.23;10.13;;;22.00;99.90;;;;;;4979981;28;20125;-82
2021/06/03 09:33:56;;;;;;;13.73;10.63;;;22.00;99.90;;;;;;4970703;28;20070;-82
2021/06/03 09:36:43;;;;;;;12.40;10.07;;;22.00;99.90;;;;;;4967214;28;20047;-81
2021/06/03 09:39:29;;;;;;;12.23;10.10;;;22.10;99.90;;;;;;4961489;29;20507;-82
2021/06/03 09:41:59;;;;;;;14.52;10.10;;;22.10;99.90;;;;;;4972065;28;20423;-80
2021/06/03 09:44:30;;;;;;;10.75;9.65;;;22.10;99.90;;;;;;4979796;28;20507;-81
2021/06/03 09:47:02;;;;;;;14.75;9.95;;;22.20;99.90;;;;;;4970043;28;20050;-80
2021/06/03 09:49:31;;;;;;;11.80;9.77;;;22.20;99.90;;;;;;4964988;28;20051;-81
2021/06/03 09:52:00;;;;;;;14.07;10.50;;;22.20;99.90;;;;;;4968208;28;20095;-79
2021/06/03 09:54:29;;;;;;;17.35;13.07;;;22.30;99.90;;;;;;4967110;28;20480;-79
2021/06/03 09:57:00;;;;;;;11.25;9.43;;;22.40;99.90;;;;;;4976041;28;20115;-81
2021/06/03 09:59:29;;;;;;;13.20;10.35;;;22.50;99.90;;;;;;4974091;28;20134;-79
2021/06/03 10:02:00;;;;;;;14.98;10.82;;;22.50;99.90;;;;;;4969413;28;20134;-80
2021/06/03 10:04:33;;;;;;;12.68;10.98;;;22.60;99.90;;;;;;4963288;28;20078;-80
2021/06/03 10:07:01;;;;;;;;;;;22.50;99.90;;;;;;4963424;28;20055;-79
2021/06/03 10:09:51;;;;;;;12.02;10.43;;;22.40;99.90;;;;;;4962576;29;19946;-80
2021/06/03 10:12:44;;;;;;;12.25;10.88;;;22.50;99.90;;;;;;4965071;29;20070;-79
2021/06/03 10:15:32;;;;;;;13.40;10.95;;;22.60;99.90;;;;;;4973968;28;20054;-81
2021/06/03 10:18:01;;;;;;;12.80;10.70;;;23.00;99.90;;;;;;4965726;28;20054;-81
2021/06/03 10:20:35;;;;;;;13.85;10.48;;;23.40;99.90;;;;;;4963486;28;20050;-81
2021/06/03 10:23:06;;;;;;;12.10;9.63;;;23.50;99.90;;;;;;4976337;28;20051;-80
2021/06/03 10:25:36;;;;;;;13.00;9.95;;;23.90;99.90;;;;;;4981193;28;20066;-81
2021/06/03 10:28:05;;;;;;;12.77;10.23;;;24.10;99.90;;;;;;4984008;28;20056;-80
2021/06/03 10:30:35;;;;;;;11.77;9.43;;;24.30;99.90;;;;;;4976761;28;20047;-80
2021/06/03 10:33:05;;;;;;;12.20;10.23;;;24.40;99.90;;;;;;4964206;29;20090;-82
2021/06/03 10:35:34;;;;;;;10.05;8.68;;;24.50;99.90;;;;;;4964091;28;20051;-82
2021/06/03 10:38:00;;;;;;;11.60;8.88;;;24.50;99.90;;;;;;4964049;28;20531;-82
2021/06/03 10:40:28;;;;;;;12.10;9.57;;;24.50;99.90;;;;;;4972886;28;20043;-82
2021/06/03 10:42:56;;;;;;;14.43;10.80;;;24.40;99.90;;;;;;4977531;28;20566;-79
2021/06/03 10:45:23;;;;;;;11.20;10.02;;;24.40;99.90;;;;;;4972880;28;20098;-79
2021/06/03 10:48:14;;;;;;;11.68;10.00;;;24.30;99.90;;;;;;4991663;23;20132;-79
2021/06/03 10:51:17;;;;;;;10.55;9.35;;;24.30;99.90;;;;;;4974250;28;20178;-78
2021/06/03 11:00:20;;;;;;;12.20;9.30;;;24.80;99.90;;;;;;4973140;28;20061;-82
2021/06/03 11:03:30;;;;;;;9.68;8.50;;;24.80;99.90;;;;;;4964684;28;20577;-81
2021/06/03 11:06:29;;;;;;;11.00;8.50;;;24.80;99.90;;;;;;4947349;28;20058;-81
2021/06/03 11:09:29;;;;;;;13.27;9.52;;;25.00;99.90;;;;;;4945595;29;20107;-82
2021/06/03 11:25:43;;;;;;;13.02;9.95;;;24.80;99.90;;;;;;4922576;29;20071;-82
2021/06/03 11:46:57;;;;;;;10.70;7.82;;;24.70;99.90;;;;;;4926549;29;20043;-82
2021/06/03 11:49:56;;;;;;;12.38;8.82;;;24.60;99.90;;;;;;4896483;29;20080;-81
2021/06/03 11:55:31;;;;;;;8.70;6.88;;;24.40;99.90;;;;;;4936093;23;20046;-83
2021/06/03 11:58:15;;;;;;;10.20;7.13;;;24.60;99.90;;;;;;5021267;28;20053;-83
2021/06/03 12:00:45;;;;;;;10.23;7.82;;;24.80;99.90;;;;;;5026151;28;20073;-85
2021/06/03 12:03:29;;;;;;;8.00;6.70;;;25.10;99.90;;;;;;5024492;28;20391;-84
2021/06/03 12:06:41;;;;;;;7.78;6.20;;;25.20;99.90;;;;;;5005333;28;20051;-83
2021/06/03 12:09:25;;;;;;;12.25;7.03;;;25.20;99.90;;;;;;5003733;28;20054;-85
2021/06/03 12:11:53;;;;;;;10.13;7.00;;;25.00;99.90;;;;;;5005610;28;20129;-83
2021/06/03 12:14:21;;;;;;;8.63;7.18;;;25.10;99.90;;;;;;5019838;28;20483;-83
2021/06/03 12:16:50;;;;;;;10.18;6.90;;;25.30;99.90;;;;;;5020294;28;20077;-84
2021/06/03 12:19:20;;;;;;;8.63;6.95;;;25.20;99.90;;;;;;5020484;28;20054;-83
2021/06/03 12:21:54;;;;;;;8.98;7.60;;;25.40;99.90;;;;;;5019758;28;20130;-84
2021/06/03 12:24:39;;;;;;;10.35;8.68;;;25.40;99.90;;;;;;5019936;28;20086;-85
2021/06/03 12:27:17;;;;;;;10.75;9.65;;;25.50;99.90;;;;;;5019418;28;20061;-85
2021/06/03 12:29:43;;;;;;;11.13;8.50;;;25.60;99.90;;;;;;5020141;28;20125;-84
2021/06/03 12:32:12;;;;;;;11.10;9.23;;;25.80;99.90;;;;;;5020662;28;20034;-84
2021/06/03 12:34:39;;;;;;;9.55;8.38;;;26.00;99.90;;;;;;5020068;28;20058;-83
2021/06/03 12:37:20;;;;;;;11.02;8.80;;;26.10;99.90;;;;;;5020392;28;20089;-82
2021/06/03 12:39:46;;;;;;;15.75;10.88;;;26.00;99.90;;;;;;5004741;28;20140;-84
2021/06/03 12:42:23;;;;;;;12.30;11.00;;;25.70;99.90;;;;;;5020913;28;20058;-84
2021/06/03 12:44:55;;;;;;;11.20;9.90;;;25.60;99.90;;;;;;5020119;28;20491;-83
2021/06/03 12:47:25;;;;;;;10.75;9.65;;;25.60;99.90;;;;;;5024075;28;20046;-81
2021/06/03 12:49:51;;;;;;;14.85;11.88;;;25.60;99.90;;;;;;5020086;28;20161;-84
2021/06/03 12:52:28;;;;;;;11.00;8.43;;;25.70;99.90;;;;;;5019627;28;20065;-81
2021/06/03 12:54:58;;;;;;;10.20;9.20;;;25.90;99.90;;;;;;5023220;28;20045;-84
2021/06/03 12:57:25;;;;;;;11.75;7.93;;;26.20;99.90;;;;;;5020295;28;20061;-84
2021/06/03 12:59:55;;;;;;;10.50;8.85;;;26.40;99.90;;;;;;5020530;28;20081;-83
2021/06/03 13:02:26;;;;;;;10.25;8.18;;;26.50;99.90;;;;;;5020658;28;20506;-85
2021/06/03 13:04:53;;;;;;;9.50;7.75;;;26.70;99.90;;;;;;5019979;28;20061;-84
2021/06/03 13:07:27;;;;;;;7.97;7.18;;;26.70;99.90;;;;;;5030439;28;20062;-82
2021/06/03 13:09:55;;;;;;;10.70;8.50;;;26.80;99.90;;;;;;5020593;28;20072;-84
2021/06/03 13:12:22;;;;;;;8.82;7.82;;;26.80;99.90;;;;;;5020860;28;20077;-83
2021/06/03 13:14:50;;;;;;;7.90;5.55;;;26.90;99.90;;;;;;5019911;28;20077;-83
2021/06/03 13:17:18;;;;;;;9.45;5.72;;;27.10;99.90;;;;;;5021566;28;20183;-84
2021/06/03 13:19:47;;;;;;;9.95;6.35;;;27.30;99.90;;;;;;5020858;28;20144;-84
2021/06/03 13:22:15;;;;;;;9.43;6.45;;;27.40;99.90;;;;;;5019118;28;20204;-82
2021/06/03 13:24:44;;;;;;;9.27;6.95;;;27.50;99.90;;;;;;5018220;28;20081;-81
2021/06/03 13:27:17;;;;;;;10.20;6.65;;;27.30;99.90;;;;;;5017077;28;20054;-81
2021/06/03 13:29:46;;;;;;;9.40;6.68;;;27.20;99.90;;;;;;5019453;28;20541;-83
2021/06/03 13:32:13;;;;;;;9.35;7.13;;;27.10;99.90;;;;;;5022474;28;20521;-84
2021/06/03 13:34:44;;;;;;;10.30;7.32;;;27.00;99.90;;;;;;5027078;28;20049;-83